sensor_id;sensor_type;location;lat;lon;timestamp;P1;durP1;ratioP1;P2;durP2;ratioP2
23001;SDS011;11667;51.706;4.856;2022-10-14T00:00:08;108.30;;;54.98;;
23001;SDS011;11667;51.706;4.856;2022-10-14T00:02:37;107.55;;;54.98;;
23001;SDS011;11667;51.706;4.856;2022-10-14T00:05:06;106.17;;;56.00;;
23001;SDS011;11667;51.706;4.856;2022-10-14T00:07:37;103.87;;;54.85;;
23001;SDS011;11667;51.706;4.856;2022-10-14T00:10:06;108.40;;;55.25;;
23001;SDS011;11667;51.706;4.856;2022-10-14T00:12:36;102.58;;;54.03;;
23001;SDS011;11667;51.706;4.856;2022-10-14T00:15:06;108.37;;;54.05;;
23001;SDS011;11667;51.706;4.856;2022-10-14T00:17:36;104.12;;;53.85;;
23001;SDS011;11667;51.706;4.856;2022-10-14T00:20:06;103.02;;;53.90;;
23001;SDS011;11667;51.706;4.856;2022-10-14T00:22:36;113.62;;;56.65;;
23001;SDS011;11667;51.706;4.856;2022-10-14T00:25:05;107.40;;;54.95;;
23001;SDS011;11667;51.706;4.856;2022-10-14T00:27:36;110.55;;;54.93;;
23001;SDS011;11667;51.706;4.856;2022-10-14T00:30:07;118.82;;;57.45;;
23001;SDS011;11667;51.706;4.856;2022-10-14T00:32:37;123.22;;;57.58;;
23001;SDS011;11667;51.706;4.856;2022-10-14T00:35:08;127.07;;;58.92;;
23001;SDS011;11667;51.706;4.856;2022-10-14T00:37:37;117.33;;;57.08;;
23001;SDS011;11667;51.706;4.856;2022-10-14T00:40:07;122.53;;;57.45;;
23001;SDS011;11667;51.706;4.856;2022-10-14T00:42:37;129.97;;;58.40;;
23001;SDS011;11667;51.706;4.856;2022-10-14T00:45:19;127.27;;;56.88;;
23001;SDS011;11667;51.706;4.856;2022-10-14T00:47:42;123.40;;;57.58;;
23001;SDS011;11667;51.706;4.856;2022-10-14T00:50:12;123.92;;;56.70;;
23001;SDS011;11667;51.706;4.856;2022-10-14T00:52:43;118.53;;;57.85;;
23001;SDS011;11667;51.706;4.856;2022-10-14T00:55:15;124.67;;;57.67;;
23001;SDS011;11667;51.706;4.856;2022-10-14T00:57:45;123.38;;;57.98;;
23001;SDS011;11667;51.706;4.856;2022-10-14T01:00:16;121.85;;;56.83;;
23001;SDS011;11667;51.706;4.856;2022-10-14T01:02:46;134.18;;;58.55;;
23001;SDS011;11667;51.706;4.856;2022-10-14T01:05:16;125.65;;;56.05;;
23001;SDS011;11667;51.706;4.856;2022-10-14T01:08:00;138.32;;;57.03;;
23001;SDS011;11667;51.706;4.856;2022-10-14T01:10:45;130.35;;;55.60;;
23001;SDS011;11667;51.706;4.856;2022-10-14T01:13:24;134.27;;;56.15;;
23001;SDS011;11667;51.706;4.856;2022-10-14T01:32:22;143.57;;;56.85;;
23001;SDS011;11667;51.706;4.856;2022-10-14T01:38:19;157.10;;;56.13;;
23001;SDS011;11667;51.706;4.856;2022-10-14T01:41:15;159.78;;;56.65;;
23001;SDS011;11667;51.706;4.856;2022-10-14T01:43:49;162.80;;;58.13;;
23001;SDS011;11667;51.706;4.856;2022-10-14T01:46:20;159.67;;;57.98;;
23001;SDS011;11667;51.706;4.856;2022-10-14T01:48:52;167.98;;;60.12;;
23001;SDS011;11667;51.706;4.856;2022-10-14T01:51:27;174.35;;;62.40;;
23001;SDS011;11667;51.706;4.856;2022-10-14T01:54:03;171.95;;;61.13;;
23001;SDS011;11667;51.706;4.856;2022-10-14T01:56:33;176.22;;;60.67;;
23001;SDS011;11667;51.706;4.856;2022-10-14T01:59:06;164.20;;;59.50;;
23001;SDS011;11667;51.706;4.856;2022-10-14T02:01:37;164.40;;;59.15;;
23001;SDS011;11667;51.706;4.856;2022-10-14T02:04:14;160.25;;;57.08;;
23001;SDS011;11667;51.706;4.856;2022-10-14T02:07:33;158.20;;;55.95;;
23001;SDS011;11667;51.706;4.856;2022-10-14T02:09:35;157.18;;;57.03;;
23001;SDS011;11667;51.706;4.856;2022-10-14T02:12:25;166.22;;;57.03;;
23001;SDS011;11667;51.706;4.856;2022-10-14T02:14:53;159.93;;;54.90;;
23001;SDS011;11667;51.706;4.856;2022-10-14T02:20:01;161.32;;;53.10;;
23001;SDS011;11667;51.706;4.856;2022-10-14T02:25:12;166.25;;;53.05;;
23001;SDS011;11667;51.706;4.856;2022-10-14T02:27:43;161.00;;;53.52;;
23001;SDS011;11667;51.706;4.856;2022-10-14T02:30:15;168.87;;;53.75;;
23001;SDS011;11667;51.706;4.856;2022-10-14T02:32:46;159.72;;;51.90;;
23001;SDS011;11667;51.706;4.856;2022-10-14T02:35:17;153.70;;;50.40;;
23001;SDS011;11667;51.706;4.856;2022-10-14T02:37:48;156.18;;;51.55;;
23001;SDS011;11667;51.706;4.856;2022-10-14T02:40:27;154.23;;;51.95;;
23001;SDS011;11667;51.706;4.856;2022-10-14T02:42:56;155.63;;;52.15;;
23001;SDS011;11667;51.706;4.856;2022-10-14T02:45:26;148.55;;;51.45;;
23001;SDS011;11667;51.706;4.856;2022-10-14T02:47:55;149.45;;;50.70;;
23001;SDS011;11667;51.706;4.856;2022-10-14T02:50:24;146.35;;;49.88;;
23001;SDS011;11667;51.706;4.856;2022-10-14T02:52:54;142.60;;;49.30;;
23001;SDS011;11667;51.706;4.856;2022-10-14T02:55:23;144.93;;;50.90;;
23001;SDS011;11667;51.706;4.856;2022-10-14T02:57:53;144.20;;;50.05;;
23001;SDS011;11667;51.706;4.856;2022-10-14T03:00:24;141.92;;;50.43;;
23001;SDS011;11667;51.706;4.856;2022-10-14T03:02:54;139.50;;;49.77;;
23001;SDS011;11667;51.706;4.856;2022-10-14T03:05:24;142.10;;;50.73;;
23001;SDS011;11667;51.706;4.856;2022-10-14T03:07:54;140.80;;;51.28;;
23001;SDS011;11667;51.706;4.856;2022-10-14T03:10:25;135.35;;;49.53;;
23001;SDS011;11667;51.706;4.856;2022-10-14T03:12:55;128.93;;;48.48;;
23001;SDS011;11667;51.706;4.856;2022-10-14T03:15:26;133.07;;;49.25;;
23001;SDS011;11667;51.706;4.856;2022-10-14T03:17:56;121.35;;;48.35;;
23001;SDS011;11667;51.706;4.856;2022-10-14T03:20:27;121.05;;;48.52;;
23001;SDS011;11667;51.706;4.856;2022-10-14T03:22:57;116.95;;;46.95;;
23001;SDS011;11667;51.706;4.856;2022-10-14T03:25:26;123.40;;;46.35;;
23001;SDS011;11667;51.706;4.856;2022-10-14T03:27:57;108.32;;;44.40;;
23001;SDS011;11667;51.706;4.856;2022-10-14T03:30:28;108.27;;;45.30;;
23001;SDS011;11667;51.706;4.856;2022-10-14T03:32:59;116.50;;;44.03;;
23001;SDS011;11667;51.706;4.856;2022-10-14T03:35:46;106.43;;;44.45;;
23001;SDS011;11667;51.706;4.856;2022-10-14T03:38:17;102.65;;;45.08;;
23001;SDS011;11667;51.706;4.856;2022-10-14T03:40:46;102.95;;;44.67;;
23001;SDS011;11667;51.706;4.856;2022-10-14T03:43:16;103.58;;;45.48;;
23001;SDS011;11667;51.706;4.856;2022-10-14T03:45:51;100.25;;;44.63;;
23001;SDS011;11667;51.706;4.856;2022-10-14T03:48:22;106.43;;;43.70;;
23001;SDS011;11667;51.706;4.856;2022-10-14T03:50:53;118.28;;;46.18;;
23001;SDS011;11667;51.706;4.856;2022-10-14T03:53:23;110.65;;;46.50;;
23001;SDS011;11667;51.706;4.856;2022-10-14T03:55:53;110.42;;;45.45;;
23001;SDS011;11667;51.706;4.856;2022-10-14T03:58:23;104.43;;;44.90;;
23001;SDS011;11667;51.706;4.856;2022-10-14T04:00:55;108.17;;;45.43;;
23001;SDS011;11667;51.706;4.856;2022-10-14T04:03:26;126.53;;;45.70;;
23001;SDS011;11667;51.706;4.856;2022-10-14T04:05:55;116.53;;;45.38;;
23001;SDS011;11667;51.706;4.856;2022-10-14T04:08:26;124.02;;;44.98;;
23001;SDS011;11667;51.706;4.856;2022-10-14T04:10:57;117.05;;;44.20;;
23001;SDS011;11667;51.706;4.856;2022-10-14T04:13:28;115.28;;;42.17;;
23001;SDS011;11667;51.706;4.856;2022-10-14T04:16:10;109.87;;;40.03;;
23001;SDS011;11667;51.706;4.856;2022-10-14T04:18:37;99.90;;;38.50;;
23001;SDS011;11667;51.706;4.856;2022-10-14T04:21:10;101.38;;;38.85;;
23001;SDS011;11667;51.706;4.856;2022-10-14T04:23:41;104.55;;;38.83;;
23001;SDS011;11667;51.706;4.856;2022-10-14T04:26:12;99.58;;;37.73;;
23001;SDS011;11667;51.706;4.856;2022-10-14T04:28:43;98.58;;;38.38;;
23001;SDS011;11667;51.706;4.856;2022-10-14T04:31:14;105.58;;;38.55;;
23001;SDS011;11667;51.706;4.856;2022-10-14T04:33:48;113.80;;;39.18;;
23001;SDS011;11667;51.706;4.856;2022-10-14T04:36:19;120.10;;;40.90;;
23001;SDS011;11667;51.706;4.856;2022-10-14T04:38:49;119.05;;;40.25;;
23001;SDS011;11667;51.706;4.856;2022-10-14T04:41:18;115.12;;;39.98;;
23001;SDS011;11667;51.706;4.856;2022-10-14T04:43:48;120.82;;;41.45;;
23001;SDS011;11667;51.706;4.856;2022-10-14T04:46:25;129.35;;;42.35;;
23001;SDS011;11667;51.706;4.856;2022-10-14T04:48:54;136.00;;;42.27;;
23001;SDS011;11667;51.706;4.856;2022-10-14T04:51:25;126.05;;;43.02;;
23001;SDS011;11667;51.706;4.856;2022-10-14T04:53:59;122.07;;;40.75;;
23001;SDS011;11667;51.706;4.856;2022-10-14T04:56:30;127.40;;;40.58;;
23001;SDS011;11667;51.706;4.856;2022-10-14T04:59:01;127.95;;;40.90;;
23001;SDS011;11667;51.706;4.856;2022-10-14T05:01:49;121.33;;;39.73;;
23001;SDS011;11667;51.706;4.856;2022-10-14T05:04:19;143.50;;;39.55;;
23001;SDS011;11667;51.706;4.856;2022-10-14T05:06:49;120.77;;;39.78;;
23001;SDS011;11667;51.706;4.856;2022-10-14T05:09:19;123.28;;;39.05;;
23001;SDS011;11667;51.706;4.856;2022-10-14T05:11:49;124.18;;;38.85;;
23001;SDS011;11667;51.706;4.856;2022-10-14T05:14:20;146.82;;;39.78;;
23001;SDS011;11667;51.706;4.856;2022-10-14T05:16:52;120.45;;;39.08;;
23001;SDS011;11667;51.706;4.856;2022-10-14T05:19:23;124.25;;;38.88;;
23001;SDS011;11667;51.706;4.856;2022-10-14T05:21:53;114.95;;;38.28;;
23001;SDS011;11667;51.706;4.856;2022-10-14T05:24:26;113.62;;;36.85;;
23001;SDS011;11667;51.706;4.856;2022-10-14T05:26:56;132.00;;;38.33;;
23001;SDS011;11667;51.706;4.856;2022-10-14T05:29:27;123.20;;;38.48;;
23001;SDS011;11667;51.706;4.856;2022-10-14T05:31:57;125.30;;;38.00;;
23001;SDS011;11667;51.706;4.856;2022-10-14T05:34:31;129.53;;;38.28;;
23001;SDS011;11667;51.706;4.856;2022-10-14T05:37:03;127.92;;;38.98;;
23001;SDS011;11667;51.706;4.856;2022-10-14T05:39:34;116.50;;;37.15;;
23001;SDS011;11667;51.706;4.856;2022-10-14T05:42:04;124.90;;;38.38;;
23001;SDS011;11667;51.706;4.856;2022-10-14T05:44:33;134.37;;;38.78;;
23001;SDS011;11667;51.706;4.856;2022-10-14T05:47:06;149.40;;;41.02;;
23001;SDS011;11667;51.706;4.856;2022-10-14T05:49:38;144.75;;;39.38;;
23001;SDS011;11667;51.706;4.856;2022-10-14T05:52:07;147.57;;;40.73;;
23001;SDS011;11667;51.706;4.856;2022-10-14T05:54:37;166.65;;;43.10;;
23001;SDS011;11667;51.706;4.856;2022-10-14T05:57:07;179.95;;;45.17;;
23001;SDS011;11667;51.706;4.856;2022-10-14T05:59:37;179.95;;;44.42;;
23001;SDS011;11667;51.706;4.856;2022-10-14T06:02:08;161.43;;;43.00;;
23001;SDS011;11667;51.706;4.856;2022-10-14T06:04:37;194.72;;;44.45;;
23001;SDS011;11667;51.706;4.856;2022-10-14T06:07:08;177.82;;;43.98;;
23001;SDS011;11667;51.706;4.856;2022-10-14T06:09:38;176.18;;;46.18;;
23001;SDS011;11667;51.706;4.856;2022-10-14T06:12:08;170.80;;;44.33;;
23001;SDS011;11667;51.706;4.856;2022-10-14T06:14:37;194.62;;;45.28;;
23001;SDS011;11667;51.706;4.856;2022-10-14T06:17:06;188.12;;;45.20;;
23001;SDS011;11667;51.706;4.856;2022-10-14T06:19:36;186.73;;;45.33;;
23001;SDS011;11667;51.706;4.856;2022-10-14T06:22:05;189.87;;;45.40;;
23001;SDS011;11667;51.706;4.856;2022-10-14T06:24:35;195.03;;;45.23;;
23001;SDS011;11667;51.706;4.856;2022-10-14T06:27:04;181.40;;;45.58;;
23001;SDS011;11667;51.706;4.856;2022-10-14T06:29:34;168.13;;;45.12;;
23001;SDS011;11667;51.706;4.856;2022-10-14T06:32:05;176.10;;;44.77;;
23001;SDS011;11667;51.706;4.856;2022-10-14T06:34:35;165.45;;;45.60;;
23001;SDS011;11667;51.706;4.856;2022-10-14T06:37:05;173.20;;;45.43;;
23001;SDS011;11667;51.706;4.856;2022-10-14T06:39:34;168.78;;;46.73;;
23001;SDS011;11667;51.706;4.856;2022-10-14T06:42:04;177.82;;;46.68;;
23001;SDS011;11667;51.706;4.856;2022-10-14T06:44:35;168.78;;;46.88;;
23001;SDS011;11667;51.706;4.856;2022-10-14T06:47:05;163.05;;;46.95;;
23001;SDS011;11667;51.706;4.856;2022-10-14T06:49:34;151.78;;;45.92;;
23001;SDS011;11667;51.706;4.856;2022-10-14T06:52:03;161.52;;;46.45;;
23001;SDS011;11667;51.706;4.856;2022-10-14T06:54:33;153.27;;;45.88;;
23001;SDS011;11667;51.706;4.856;2022-10-14T06:57:04;161.43;;;48.08;;
23001;SDS011;11667;51.706;4.856;2022-10-14T06:59:34;151.00;;;45.43;;
23001;SDS011;11667;51.706;4.856;2022-10-14T07:02:05;150.97;;;47.30;;
23001;SDS011;11667;51.706;4.856;2022-10-14T07:04:34;151.02;;;45.85;;
23001;SDS011;11667;51.706;4.856;2022-10-14T07:07:05;151.22;;;47.17;;
23001;SDS011;11667;51.706;4.856;2022-10-14T07:09:35;152.17;;;46.85;;
23001;SDS011;11667;51.706;4.856;2022-10-14T07:12:04;143.90;;;46.83;;
23001;SDS011;11667;51.706;4.856;2022-10-14T07:14:33;140.95;;;44.33;;
23001;SDS011;11667;51.706;4.856;2022-10-14T07:17:03;136.62;;;46.25;;
23001;SDS011;11667;51.706;4.856;2022-10-14T07:19:32;128.12;;;44.85;;
23001;SDS011;11667;51.706;4.856;2022-10-14T07:22:02;121.25;;;43.85;;
23001;SDS011;11667;51.706;4.856;2022-10-14T07:24:32;123.55;;;42.90;;
23001;SDS011;11667;51.706;4.856;2022-10-14T07:27:01;133.07;;;43.45;;
23001;SDS011;11667;51.706;4.856;2022-10-14T07:29:31;127.22;;;43.02;;
23001;SDS011;11667;51.706;4.856;2022-10-14T07:32:01;112.75;;;41.42;;
23001;SDS011;11667;51.706;4.856;2022-10-14T07:34:31;113.47;;;41.75;;
23001;SDS011;11667;51.706;4.856;2022-10-14T07:37:01;111.17;;;41.00;;
23001;SDS011;11667;51.706;4.856;2022-10-14T07:39:30;113.17;;;42.13;;
23001;SDS011;11667;51.706;4.856;2022-10-14T07:42:00;111.25;;;41.00;;
23001;SDS011;11667;51.706;4.856;2022-10-14T07:44:30;111.28;;;41.33;;
23001;SDS011;11667;51.706;4.856;2022-10-14T07:46:59;108.37;;;41.08;;
23001;SDS011;11667;51.706;4.856;2022-10-14T07:49:29;109.80;;;41.45;;
23001;SDS011;11667;51.706;4.856;2022-10-14T07:51:59;118.13;;;42.10;;
23001;SDS011;11667;51.706;4.856;2022-10-14T07:54:28;118.57;;;41.85;;
23001;SDS011;11667;51.706;4.856;2022-10-14T07:56:59;122.22;;;43.13;;
23001;SDS011;11667;51.706;4.856;2022-10-14T07:59:28;122.13;;;41.95;;
23001;SDS011;11667;51.706;4.856;2022-10-14T08:01:58;115.90;;;41.92;;
23001;SDS011;11667;51.706;4.856;2022-10-14T08:04:27;125.40;;;42.03;;
23001;SDS011;11667;51.706;4.856;2022-10-14T08:06:56;101.38;;;39.20;;
23001;SDS011;11667;51.706;4.856;2022-10-14T08:09:26;104.45;;;39.55;;
23001;SDS011;11667;51.706;4.856;2022-10-14T08:11:56;95.53;;;37.17;;
23001;SDS011;11667;51.706;4.856;2022-10-14T08:14:25;89.30;;;36.73;;
23001;SDS011;11667;51.706;4.856;2022-10-14T08:16:55;92.33;;;38.38;;
23001;SDS011;11667;51.706;4.856;2022-10-14T08:19:24;89.03;;;36.35;;
23001;SDS011;11667;51.706;4.856;2022-10-14T08:21:54;85.22;;;35.68;;
23001;SDS011;11667;51.706;4.856;2022-10-14T08:24:23;83.65;;;35.25;;
23001;SDS011;11667;51.706;4.856;2022-10-14T08:26:53;79.22;;;34.05;;
23001;SDS011;11667;51.706;4.856;2022-10-14T08:29:24;71.92;;;33.78;;
23001;SDS011;11667;51.706;4.856;2022-10-14T08:31:54;75.57;;;34.18;;
23001;SDS011;11667;51.706;4.856;2022-10-14T08:34:23;75.85;;;33.78;;
23001;SDS011;11667;51.706;4.856;2022-10-14T08:36:53;75.65;;;34.13;;
23001;SDS011;11667;51.706;4.856;2022-10-14T08:39:22;76.45;;;34.00;;
23001;SDS011;11667;51.706;4.856;2022-10-14T08:42:00;70.95;;;33.02;;
23001;SDS011;11667;51.706;4.856;2022-10-14T08:47:28;70.83;;;32.10;;
23001;SDS011;11667;51.706;4.856;2022-10-14T08:49:56;68.62;;;31.35;;
23001;SDS011;11667;51.706;4.856;2022-10-14T08:52:44;68.17;;;30.85;;
23001;SDS011;11667;51.706;4.856;2022-10-14T08:55:16;65.28;;;30.90;;
23001;SDS011;11667;51.706;4.856;2022-10-14T08:57:53;61.77;;;29.23;;
23001;SDS011;11667;51.706;4.856;2022-10-14T09:02:53;57.53;;;27.13;;
23001;SDS011;11667;51.706;4.856;2022-10-14T09:05:23;56.45;;;26.95;;
23001;SDS011;11667;51.706;4.856;2022-10-14T09:07:54;54.18;;;26.60;;
23001;SDS011;11667;51.706;4.856;2022-10-14T09:10:31;58.35;;;27.02;;
23001;SDS011;11667;51.706;4.856;2022-10-14T09:13:18;55.88;;;26.20;;
23001;SDS011;11667;51.706;4.856;2022-10-14T09:15:57;51.25;;;25.15;;
23001;SDS011;11667;51.706;4.856;2022-10-14T09:18:40;54.10;;;26.07;;
23001;SDS011;11667;51.706;4.856;2022-10-14T09:21:32;55.12;;;26.95;;
23001;SDS011;11667;51.706;4.856;2022-10-14T09:24:15;49.00;;;24.40;;
23001;SDS011;11667;51.706;4.856;2022-10-14T09:26:57;46.35;;;24.20;;
23001;SDS011;11667;51.706;4.856;2022-10-14T09:32:29;43.05;;;23.52;;
23001;SDS011;11667;51.706;4.856;2022-10-14T09:37:34;40.75;;;21.65;;
23001;SDS011;11667;51.706;4.856;2022-10-14T09:48:43;36.90;;;20.10;;
23001;SDS011;11667;51.706;4.856;2022-10-14T09:51:19;35.25;;;19.27;;
23001;SDS011;11667;51.706;4.856;2022-10-14T09:53:57;33.45;;;18.87;;
23001;SDS011;11667;51.706;4.856;2022-10-14T09:59:01;35.00;;;18.83;;
23001;SDS011;11667;51.706;4.856;2022-10-14T10:01:38;29.05;;;17.10;;
23001;SDS011;11667;51.706;4.856;2022-10-14T10:07:05;30.12;;;17.67;;
23001;SDS011;11667;51.706;4.856;2022-10-14T10:09:36;27.60;;;16.42;;
23001;SDS011;11667;51.706;4.856;2022-10-14T10:15:02;26.25;;;16.17;;
23001;SDS011;11667;51.706;4.856;2022-10-14T10:17:33;27.05;;;15.72;;
23001;SDS011;11667;51.706;4.856;2022-10-14T10:20:20;25.97;;;15.68;;
23001;SDS011;11667;51.706;4.856;2022-10-14T10:23:21;28.05;;;16.27;;
23001;SDS011;11667;51.706;4.856;2022-10-14T10:25:47;29.82;;;16.75;;
23001;SDS011;11667;51.706;4.856;2022-10-14T10:28:18;31.00;;;17.70;;
23001;SDS011;11667;51.706;4.856;2022-10-14T10:41:51;34.55;;;19.57;;
23001;SDS011;11667;51.706;4.856;2022-10-14T10:44:58;32.97;;;19.90;;
23001;SDS011;11667;51.706;4.856;2022-10-14T10:47:53;34.48;;;19.62;;
23001;SDS011;11667;51.706;4.856;2022-10-14T10:50:29;33.88;;;20.00;;
23001;SDS011;11667;51.706;4.856;2022-10-14T11:01:18;39.42;;;20.25;;
23001;SDS011;11667;51.706;4.856;2022-10-14T11:06:37;38.67;;;19.98;;
23001;SDS011;11667;51.706;4.856;2022-10-14T11:09:37;36.65;;;19.75;;
23001;SDS011;11667;51.706;4.856;2022-10-14T11:12:32;35.70;;;18.87;;
23001;SDS011;11667;51.706;4.856;2022-10-14T11:20:19;41.18;;;19.42;;
23001;SDS011;11667;51.706;4.856;2022-10-14T11:23:32;34.83;;;19.17;;
23001;SDS011;11667;51.706;4.856;2022-10-14T11:28:51;37.08;;;19.48;;
23001;SDS011;11667;51.706;4.856;2022-10-14T11:37:06;30.15;;;17.48;;
23001;SDS011;11667;51.706;4.856;2022-10-14T11:39:45;30.10;;;17.07;;
23001;SDS011;11667;51.706;4.856;2022-10-14T11:48:08;27.67;;;16.17;;
23001;SDS011;11667;51.706;4.856;2022-10-14T11:50:43;23.45;;;15.48;;
23001;SDS011;11667;51.706;4.856;2022-10-14T11:53:18;25.20;;;15.03;;
23001;SDS011;11667;51.706;4.856;2022-10-14T11:55:59;21.42;;;13.60;;
23001;SDS011;11667;51.706;4.856;2022-10-14T11:58:23;20.77;;;13.08;;
23001;SDS011;11667;51.706;4.856;2022-10-14T12:00:53;21.77;;;13.43;;
23001;SDS011;11667;51.706;4.856;2022-10-14T12:03:44;22.07;;;14.33;;
23001;SDS011;11667;51.706;4.856;2022-10-14T12:06:33;27.93;;;15.30;;
23001;SDS011;11667;51.706;4.856;2022-10-14T12:11:58;30.48;;;16.90;;
23001;SDS011;11667;51.706;4.856;2022-10-14T12:14:38;33.85;;;17.87;;
23001;SDS011;11667;51.706;4.856;2022-10-14T12:17:36;36.03;;;18.15;;
23001;SDS011;11667;51.706;4.856;2022-10-14T12:20:20;36.68;;;19.10;;
23001;SDS011;11667;51.706;4.856;2022-10-14T12:23:07;36.42;;;19.20;;
23001;SDS011;11667;51.706;4.856;2022-10-14T12:28:09;35.88;;;18.80;;
23001;SDS011;11667;51.706;4.856;2022-10-14T12:30:41;33.85;;;19.80;;
23001;SDS011;11667;51.706;4.856;2022-10-14T12:33:11;35.05;;;19.12;;
23001;SDS011;11667;51.706;4.856;2022-10-14T12:35:49;35.38;;;20.48;;
23001;SDS011;11667;51.706;4.856;2022-10-14T12:38:27;34.43;;;20.60;;
23001;SDS011;11667;51.706;4.856;2022-10-14T12:43:35;39.65;;;20.48;;
23001;SDS011;11667;51.706;4.856;2022-10-14T12:46:09;37.67;;;20.10;;
23001;SDS011;11667;51.706;4.856;2022-10-14T12:48:44;35.85;;;21.27;;
23001;SDS011;11667;51.706;4.856;2022-10-14T12:51:18;35.85;;;20.25;;
23001;SDS011;11667;51.706;4.856;2022-10-14T12:54:03;40.03;;;20.85;;
23001;SDS011;11667;51.706;4.856;2022-10-14T12:56:38;39.63;;;21.60;;
23001;SDS011;11667;51.706;4.856;2022-10-14T12:59:18;39.70;;;21.93;;
23001;SDS011;11667;51.706;4.856;2022-10-14T13:01:53;41.20;;;23.18;;
23001;SDS011;11667;51.706;4.856;2022-10-14T13:04:31;40.73;;;23.60;;
23001;SDS011;11667;51.706;4.856;2022-10-14T13:09:58;44.75;;;24.23;;
23001;SDS011;11667;51.706;4.856;2022-10-14T13:15:28;43.38;;;25.57;;
23001;SDS011;11667;51.706;4.856;2022-10-14T13:23:14;45.63;;;25.32;;
23001;SDS011;11667;51.706;4.856;2022-10-14T13:25:50;46.15;;;26.52;;
23001;SDS011;11667;51.706;4.856;2022-10-14T13:28:30;43.13;;;25.70;;
23001;SDS011;11667;51.706;4.856;2022-10-14T13:31:07;38.78;;;23.27;;
23001;SDS011;11667;51.706;4.856;2022-10-14T13:33:39;39.78;;;23.40;;
23001;SDS011;11667;51.706;4.856;2022-10-14T13:38:40;37.45;;;22.13;;
23001;SDS011;11667;51.706;4.856;2022-10-14T13:41:16;36.20;;;22.35;;
23001;SDS011;11667;51.706;4.856;2022-10-14T13:43:48;33.40;;;21.05;;
23001;SDS011;11667;51.706;4.856;2022-10-14T13:46:22;35.25;;;22.70;;
23001;SDS011;11667;51.706;4.856;2022-10-14T13:48:55;36.15;;;22.60;;
23001;SDS011;11667;51.706;4.856;2022-10-14T13:51:46;36.88;;;21.55;;
23001;SDS011;11667;51.706;4.856;2022-10-14T13:54:21;31.68;;;19.77;;
23001;SDS011;11667;51.706;4.856;2022-10-14T13:57:00;28.47;;;19.20;;
23001;SDS011;11667;51.706;4.856;2022-10-14T13:59:29;31.15;;;19.95;;
23001;SDS011;11667;51.706;4.856;2022-10-14T14:02:01;28.98;;;17.98;;
23001;SDS011;11667;51.706;4.856;2022-10-14T14:04:32;30.95;;;20.43;;
23001;SDS011;11667;51.706;4.856;2022-10-14T14:07:02;28.00;;;19.92;;
23001;SDS011;11667;51.706;4.856;2022-10-14T14:09:34;22.77;;;16.93;;
23001;SDS011;11667;51.706;4.856;2022-10-14T14:12:04;24.23;;;16.87;;
23001;SDS011;11667;51.706;4.856;2022-10-14T14:14:35;26.37;;;17.55;;
23001;SDS011;11667;51.706;4.856;2022-10-14T14:17:06;25.97;;;15.83;;
23001;SDS011;11667;51.706;4.856;2022-10-14T14:19:46;23.52;;;14.28;;
23001;SDS011;11667;51.706;4.856;2022-10-14T14:22:18;18.17;;;11.50;;
23001;SDS011;11667;51.706;4.856;2022-10-14T14:25:14;17.85;;;11.93;;
23001;SDS011;11667;51.706;4.856;2022-10-14T14:27:47;18.17;;;11.33;;
23001;SDS011;11667;51.706;4.856;2022-10-14T14:30:27;16.37;;;10.90;;
23001;SDS011;11667;51.706;4.856;2022-10-14T14:33:03;17.65;;;11.10;;
23001;SDS011;11667;51.706;4.856;2022-10-14T14:38:03;18.32;;;12.30;;
23001;SDS011;11667;51.706;4.856;2022-10-14T14:40:32;18.80;;;13.03;;
23001;SDS011;11667;51.706;4.856;2022-10-14T14:43:02;21.33;;;13.68;;
23001;SDS011;11667;51.706;4.856;2022-10-14T14:45:39;20.12;;;13.30;;
23001;SDS011;11667;51.706;4.856;2022-10-14T14:48:05;19.25;;;12.50;;
23001;SDS011;11667;51.706;4.856;2022-10-14T14:50:36;18.82;;;12.13;;
23001;SDS011;11667;51.706;4.856;2022-10-14T14:53:09;16.42;;;11.25;;
23001;SDS011;11667;51.706;4.856;2022-10-14T14:58:31;17.23;;;11.45;;
23001;SDS011;11667;51.706;4.856;2022-10-14T15:01:04;17.05;;;10.32;;
23001;SDS011;11667;51.706;4.856;2022-10-14T15:03:48;14.15;;;10.00;;
23001;SDS011;11667;51.706;4.856;2022-10-14T15:06:28;14.73;;;9.85;;
23001;SDS011;11667;51.706;4.856;2022-10-14T15:08:59;14.00;;;9.40;;
23001;SDS011;11667;51.706;4.856;2022-10-14T15:11:31;14.53;;;8.68;;
23001;SDS011;11667;51.706;4.856;2022-10-14T15:14:01;13.32;;;7.60;;
23001;SDS011;11667;51.706;4.856;2022-10-14T15:16:35;10.93;;;7.15;;
23001;SDS011;11667;51.706;4.856;2022-10-14T15:19:21;12.68;;;7.67;;
23001;SDS011;11667;51.706;4.856;2022-10-14T15:25:04;9.65;;;6.78;;
23001;SDS011;11667;51.706;4.856;2022-10-14T15:27:45;10.50;;;8.05;;
23001;SDS011;11667;51.706;4.856;2022-10-14T15:30:24;11.55;;;8.08;;
23001;SDS011;11667;51.706;4.856;2022-10-14T15:33:02;16.00;;;10.00;;
23001;SDS011;11667;51.706;4.856;2022-10-14T15:35:31;16.35;;;10.80;;
23001;SDS011;11667;51.706;4.856;2022-10-14T15:38:07;15.60;;;9.18;;
23001;SDS011;11667;51.706;4.856;2022-10-14T15:40:37;13.08;;;9.33;;
23001;SDS011;11667;51.706;4.856;2022-10-14T15:43:11;14.00;;;10.20;;
23001;SDS011;11667;51.706;4.856;2022-10-14T15:45:48;16.95;;;10.80;;
23001;SDS011;11667;51.706;4.856;2022-10-14T15:48:21;16.12;;;11.22;;
23001;SDS011;11667;51.706;4.856;2022-10-14T15:50:51;16.48;;;11.57;;
23001;SDS011;11667;51.706;4.856;2022-10-14T15:53:20;15.45;;;10.98;;
23001;SDS011;11667;51.706;4.856;2022-10-14T15:55:52;18.35;;;11.65;;
23001;SDS011;11667;51.706;4.856;2022-10-14T15:58:21;16.50;;;10.30;;
23001;SDS011;11667;51.706;4.856;2022-10-14T16:00:50;16.55;;;9.90;;
23001;SDS011;11667;51.706;4.856;2022-10-14T16:03:20;15.30;;;10.63;;
23001;SDS011;11667;51.706;4.856;2022-10-14T16:05:49;18.35;;;12.05;;
23001;SDS011;11667;51.706;4.856;2022-10-14T16:08:19;19.23;;;13.15;;
23001;SDS011;11667;51.706;4.856;2022-10-14T16:10:48;16.60;;;10.88;;
23001;SDS011;11667;51.706;4.856;2022-10-14T16:13:19;17.70;;;12.28;;
23001;SDS011;11667;51.706;4.856;2022-10-14T16:15:53;22.77;;;14.20;;
23001;SDS011;11667;51.706;4.856;2022-10-14T16:18:26;20.05;;;15.28;;
23001;SDS011;11667;51.706;4.856;2022-10-14T16:20:56;19.23;;;14.87;;
23001;SDS011;11667;51.706;4.856;2022-10-14T16:23:27;23.62;;;15.90;;
23001;SDS011;11667;51.706;4.856;2022-10-14T16:25:59;21.95;;;15.53;;
23001;SDS011;11667;51.706;4.856;2022-10-14T16:28:28;25.82;;;15.70;;
23001;SDS011;11667;51.706;4.856;2022-10-14T16:30:58;23.73;;;16.17;;
23001;SDS011;11667;51.706;4.856;2022-10-14T16:33:27;24.35;;;16.23;;
23001;SDS011;11667;51.706;4.856;2022-10-14T16:35:57;22.02;;;15.80;;
23001;SDS011;11667;51.706;4.856;2022-10-14T16:38:28;25.30;;;17.98;;
23001;SDS011;11667;51.706;4.856;2022-10-14T16:40:58;26.42;;;17.90;;
23001;SDS011;11667;51.706;4.856;2022-10-14T16:43:29;24.77;;;17.95;;
23001;SDS011;11667;51.706;4.856;2022-10-14T16:45:59;31.48;;;22.32;;
23001;SDS011;11667;51.706;4.856;2022-10-14T16:48:35;29.37;;;22.10;;
23001;SDS011;11667;51.706;4.856;2022-10-14T16:51:01;31.77;;;22.22;;
23001;SDS011;11667;51.706;4.856;2022-10-14T16:53:31;32.90;;;22.42;;